Time;durP1;ratioP1;P1;durP2;ratioP2;P2;SDS_P1;SDS_P2;PMS_P1;PMS_P2;Temp;Humidity;BMP_temperature;BMP_pressure;BME280_temperature;BME280_humidity;BME280_pressure;Samples;Min_cycle;Max_cycle;Signal;HPM_P1;HPM_P2
2021/03/02 00:01:04;;;;;;;33.88;24.23;;;7.90;99.90;;;;;;5100844;27;20043;-51
2021/03/02 00:03:32;;;;;;;32.13;24.40;;;8.00;99.90;;;;;;5137349;27;20407;-48
2021/03/02 00:06:00;;;;;;;31.58;23.55;;;7.90;99.90;;;;;;5137244;27;20042;-48
2021/03/02 00:08:27;;;;;;;31.85;23.65;;;8.00;99.90;;;;;;5137033;27;20031;-49
2021/03/02 00:10:55;;;;;;;29.27;22.73;;;7.90;99.90;;;;;;5137305;27;20114;-49
2021/03/02 00:13:23;;;;;;;31.80;25.13;;;7.90;99.90;;;;;;5100927;27;20047;-48
2021/03/02 00:15:48;;;;;;;32.22;24.77;;;7.90;99.90;;;;;;5136874;27;20116;-48
2021/03/02 00:18:19;;;;;;;37.47;25.67;;;7.90;99.90;;;;;;5136975;27;20052;-49
2021/03/02 00:20:47;;;;;;;35.55;25.42;;;7.80;99.90;;;;;;5100645;27;20126;-48
2021/03/02 00:23:39;;;;;;;36.85;25.17;;;7.80;99.90;;;;;;5136644;27;20458;-49
2021/03/02 00:26:06;;;;;;;33.92;23.90;;;7.80;99.90;;;;;;5033276;28;20382;-49
2021/03/02 00:28:34;;;;;;;33.72;24.17;;;7.80;99.90;;;;;;5033684;28;20041;-49
2021/03/02 00:31:02;;;;;;;33.47;24.10;;;7.80;99.90;;;;;;5032941;28;20041;-48
2021/03/02 00:33:29;;;;;;;33.92;25.58;;;7.80;99.90;;;;;;5033346;28;20033;-48
2021/03/02 00:35:55;;;;;;;33.25;24.50;;;7.80;99.90;;;;;;5033188;28;20073;-49
2021/03/02 00:38:21;;;;;;;34.28;25.17;;;7.80;99.90;;;;;;5032863;28;20072;-49
2021/03/02 00:40:46;;;;;;;36.60;24.90;;;7.90;99.90;;;;;;5033202;28;20504;-49
2021/03/02 00:43:12;;;;;;;31.98;24.33;;;7.80;99.90;;;;;;5000206;28;20045;-49
2021/03/02 00:45:38;;;;;;;32.42;24.58;;;7.70;99.90;;;;;;5032694;28;20041;-49
2021/03/02 00:48:04;;;;;;;33.72;24.83;;;7.60;99.90;;;;;;5033022;28;20129;-49
2021/03/02 00:50:30;;;;;;;32.40;25.20;;;7.50;99.90;;;;;;5033187;28;20045;-49
2021/03/02 00:52:56;;;;;;;32.63;23.90;;;7.50;99.90;;;;;;5032634;28;20033;-48
2021/03/02 00:55:22;;;;;;;33.33;24.58;;;7.60;99.90;;;;;;5032778;28;20061;-49
2021/03/02 00:57:48;;;;;;;34.35;25.15;;;7.60;99.90;;;;;;4983300;28;20049;-49
2021/03/02 01:00:14;;;;;;;34.85;25.17;;;7.60;99.90;;;;;;5032545;28;20040;-48
2021/03/02 01:02:40;;;;;;;35.15;26.42;;;7.60;99.90;;;;;;5052677;27;20118;-49
2021/03/02 01:05:07;;;;;;;33.47;24.90;;;7.60;99.90;;;;;;5135986;27;20479;-49
2021/03/02 01:07:34;;;;;;;33.60;25.08;;;7.50;99.90;;;;;;5066019;27;20035;-49
2021/03/02 01:10:00;;;;;;;33.45;23.67;;;7.50;99.90;;;;;;5135799;27;20031;-49
2021/03/02 01:12:28;;;;;;;34.13;24.75;;;7.40;99.90;;;;;;5136020;27;20489;-49
2021/03/02 01:14:58;;;;;;;35.25;24.88;;;7.30;99.90;;;;;;5135532;27;20039;-48
2021/03/02 01:17:24;;;;;;;36.25;26.02;;;7.30;99.90;;;;;;5135889;27;20050;-50
2021/03/02 01:19:49;;;;;;;39.50;28.13;;;7.30;99.90;;;;;;5135654;27;20035;-48
2021/03/02 01:22:15;;;;;;;34.55;26.08;;;7.20;99.90;;;;;;5135532;27;20027;-49
2021/03/02 01:24:41;;;;;;;37.50;26.83;;;7.20;99.90;;;;;;5135633;27;20435;-48
2021/03/02 01:27:08;;;;;;;34.25;25.65;;;7.20;99.90;;;;;;5135538;27;20023;-48
2021/03/02 01:29:34;;;;;;;35.25;26.95;;;7.20;99.90;;;;;;5135336;27;20157;-48
2021/03/02 01:32:00;;;;;;;36.88;27.60;;;7.30;99.90;;;;;;5135473;27;20465;-49
2021/03/02 01:34:26;;;;;;;39.28;26.70;;;7.30;99.90;;;;;;5135492;27;20374;-49
2021/03/02 01:36:51;;;;;;;34.22;24.92;;;7.20;99.90;;;;;;5134999;27;20039;-49
2021/03/02 01:39:17;;;;;;;35.00;25.48;;;7.20;99.90;;;;;;5135248;27;20481;-49
2021/03/02 01:41:54;;;;;;;36.72;27.30;;;7.10;99.90;;;;;;5135339;27;20029;-48
2021/03/02 01:44:20;;;;;;;39.85;29.10;;;7.10;99.90;;;;;;5135177;27;20035;-48
2021/03/02 01:46:48;;;;;;;37.72;28.27;;;7.10;99.90;;;;;;5135226;27;20055;-49
2021/03/02 01:49:15;;;;;;;40.40;28.40;;;7.20;99.90;;;;;;5135099;27;20450;-49
2021/03/02 01:51:40;;;;;;;42.25;30.55;;;7.20;99.90;;;;;;5135076;27;20121;-49
2021/03/02 01:54:06;;;;;;;38.95;28.42;;;7.30;99.90;;;;;;5135094;27;20115;-49
2021/03/02 01:56:32;;;;;;;38.03;28.88;;;7.30;99.90;;;;;;5135309;27;20113;-49
2021/03/02 01:58:59;;;;;;;38.28;28.67;;;7.30;99.90;;;;;;5134841;27;20042;-48
2021/03/02 02:01:24;;;;;;;43.03;29.70;;;7.30;99.90;;;;;;5134864;27;20058;-48
2021/03/02 02:04:01;;;;;;;40.67;29.10;;;7.30;99.90;;;;;;5098864;27;20477;-49
2021/03/02 02:06:44;;;;;;;39.97;28.45;;;7.30;99.90;;;;;;5134502;27;20023;-49
2021/03/02 02:09:17;;;;;;;38.95;29.67;;;;;;;;;;5134886;27;20035;-49
2021/03/02 02:11:50;;;;;;;41.17;30.05;;;7.20;99.90;;;;;;5134924;27;20517;-49
2021/03/02 02:14:50;;;;;;;38.70;27.88;;;7.20;99.90;;;;;;5115869;27;20038;-49
2021/03/02 02:17:38;;;;;;;37.42;28.15;;;7.20;99.90;;;;;;5134709;27;20043;-49
2021/03/02 02:20:08;;;;;;;38.95;28.55;;;7.10;99.90;;;;;;5134487;27;20524;-48
2021/03/02 02:23:11;;;;;;;41.45;28.55;;;7.10;99.90;;;;;;5051067;28;20123;-48
2021/03/02 02:25:50;;;;;;;37.20;28.17;;;7.10;99.90;;;;;;5051117;28;20484;-49
2021/03/02 02:28:18;;;;;;;37.58;28.92;;;7.20;99.90;;;;;;5034278;28;20083;-48
2021/03/02 02:30:47;;;;;;;36.90;28.17;;;7.10;99.90;;;;;;5051389;28;20079;-49
2021/03/02 02:33:15;;;;;;;37.92;27.98;;;7.20;99.90;;;;;;5051153;28;20423;-48
2021/03/02 02:35:43;;;;;;;36.80;26.55;;;7.10;99.90;;;;;;5051059;28;20061;-48
2021/03/02 02:38:13;;;;;;;36.13;27.30;;;7.10;99.90;;;;;;5050912;28;20483;-48
2021/03/02 02:40:40;;;;;;;37.38;27.30;;;7.10;99.90;;;;;;5051119;28;20057;-49
2021/03/02 02:43:07;;;;;;;40.65;27.90;;;7.00;99.90;;;;;;5050865;28;20041;-49
2021/03/02 02:45:33;;;;;;;38.33;27.10;;;7.00;99.90;;;;;;5051028;28;20589;-49
2021/03/02 02:47:59;;;;;;;36.80;27.15;;;6.90;99.90;;;;;;5051087;28;20080;-48
2021/03/02 02:50:26;;;;;;;32.35;25.77;;;6.80;99.90;;;;;;5050841;28;20033;-49
2021/03/02 02:52:52;;;;;;;40.25;28.10;;;6.90;99.90;;;;;;5059609;28;20047;-49
2021/03/02 02:55:19;;;;;;;39.10;27.38;;;6.90;99.90;;;;;;5091110;28;20066;-49
2021/03/02 02:57:51;;;;;;;34.90;26.05;;;6.80;99.90;;;;;;5091030;28;20099;-49
2021/03/02 03:00:20;;;;;;;38.85;27.45;;;6.70;99.90;;;;;;5117720;28;20416;-50
2021/03/02 03:02:51;;;;;;;35.42;27.30;;;6.70;99.90;;;;;;5047961;28;20062;-48
2021/03/02 03:05:23;;;;;;;37.28;26.80;;;6.70;99.90;;;;;;5134049;28;20031;-48
2021/03/02 03:08:11;;;;;;;36.92;26.67;;;6.50;99.90;;;;;;5097944;28;20035;-48
2021/03/02 03:10:38;;;;;;;36.92;26.45;;;6.40;99.90;;;;;;5131695;28;20126;-48
2021/03/02 03:13:06;;;;;;;35.45;26.27;;;6.40;99.90;;;;;;5134116;27;20027;-50
2021/03/02 03:15:34;;;;;;;37.50;27.67;;;6.40;99.90;;;;;;5134403;27;20070;-48
2021/03/02 03:18:08;;;;;;;37.45;28.08;;;6.40;99.90;;;;;;5134162;27;20462;-49
2021/03/02 03:20:35;;;;;;;34.83;26.38;;;6.30;99.90;;;;;;5085544;27;20474;-49
2021/03/02 03:23:01;;;;;;;36.42;26.17;;;6.30;99.90;;;;;;5102021;27;20114;-48
2021/03/02 03:25:27;;;;;;;38.80;27.25;;;6.30;99.90;;;;;;5138176;27;20511;-49
2021/03/02 03:27:58;;;;;;;37.10;27.15;;;6.40;99.90;;;;;;5138061;27;20461;-48
2021/03/02 03:30:25;;;;;;;32.90;24.88;;;6.40;99.90;;;;;;5138282;27;20477;-49
2021/03/02 03:32:57;;;;;;;34.47;25.48;;;6.40;99.90;;;;;;5138410;27;20035;-49
2021/03/02 03:35:24;;;;;;;34.28;26.92;;;6.40;99.90;;;;;;5137766;27;20031;-49
2021/03/02 03:37:51;;;;;;;35.65;26.00;;;6.40;99.90;;;;;;5101510;27;20094;-49
2021/03/02 03:40:17;;;;;;;33.40;24.88;;;6.40;99.90;;;;;;5051266;27;20043;-48
2021/03/02 03:42:43;;;;;;;35.13;25.63;;;6.40;99.90;;;;;;5137532;27;20038;-48
2021/03/02 03:45:09;;;;;;;36.08;25.63;;;6.30;99.90;;;;;;5101899;27;20039;-50
2021/03/02 03:47:36;;;;;;;34.50;25.52;;;6.30;99.90;;;;;;5085066;27;20055;-48
2021/03/02 03:50:03;;;;;;;34.97;24.98;;;6.40;99.90;;;;;;5137429;27;20034;-49
2021/03/02 03:52:29;;;;;;;31.30;24.33;;;6.40;99.90;;;;;;5137768;27;20351;-49
2021/03/02 03:54:56;;;;;;;31.88;24.80;;;6.30;99.90;;;;;;5137694;27;20031;-48
2021/03/02 03:57:24;;;;;;;33.92;25.55;;;6.30;99.90;;;;;;5137492;27;20031;-49
2021/03/02 03:59:52;;;;;;;42.20;25.95;;;6.30;99.90;;;;;;5137707;27;20092;-49
2021/03/02 04:02:19;;;;;;;31.65;24.00;;;6.30;99.90;;;;;;5137295;27;20055;-49
2021/03/02 04:04:47;;;;;;;41.20;25.35;;;6.20;99.90;;;;;;5137371;27;20034;-48
2021/03/02 04:07:14;;;;;;;35.85;23.95;;;6.20;99.90;;;;;;5137364;27;20035;-48
2021/03/02 04:09:40;;;;;;;34.03;24.63;;;6.20;99.90;;;;;;5137364;27;20058;-48
2021/03/02 04:12:09;;;;;;;34.15;24.20;;;6.10;99.90;;;;;;5137141;27;20023;-49
2021/03/02 04:14:35;;;;;;;34.50;22.75;;;6.10;99.90;;;;;;5137341;27;20461;-49
2021/03/02 04:17:02;;;;;;;35.97;25.30;;;6.20;99.90;;;;;;5100928;27;20126;-49
2021/03/02 04:19:28;;;;;;;35.20;24.75;;;6.20;99.90;;;;;;5136953;27;20118;-48
2021/03/02 04:21:54;;;;;;;33.47;22.85;;;6.10;99.90;;;;;;5137761;27;20031;-48
2021/03/02 04:24:20;;;;;;;31.20;22.65;;;6.10;99.90;;;;;;5100768;27;20046;-48
2021/03/02 04:26:46;;;;;;;35.53;25.17;;;6.10;99.90;;;;;;5136881;27;20034;-50
2021/03/02 04:29:11;;;;;;;31.38;23.05;;;6.10;99.90;;;;;;5136400;27;20481;-48
2021/03/02 04:31:37;;;;;;;30.55;23.48;;;6.00;99.90;;;;;;5137067;27;20031;-48
2021/03/02 04:34:03;;;;;;;31.60;22.35;;;6.00;99.90;;;;;;5136913;27;20027;-49
2021/03/02 04:36:28;;;;;;;28.98;22.85;;;6.10;99.90;;;;;;5136504;27;20061;-49
2021/03/02 04:38:54;;;;;;;35.97;24.83;;;6.10;99.90;;;;;;5100904;27;20125;-55
2021/03/02 04:41:20;;;;;;;41.53;30.45;;;5.60;99.90;;;;;;5136411;27;20034;-49
2021/03/02 04:43:46;;;;;;;36.47;26.02;;;4.90;99.90;;;;;;5136677;27;20027;-48
2021/03/02 04:46:12;;;;;;;45.45;29.75;;;4.70;99.90;;;;;;5136661;27;20434;-49
2021/03/02 04:48:38;;;;;;;57.53;37.55;;;5.00;99.90;;;;;;5136051;27;20141;-49
2021/03/02 04:51:04;;;;;;;53.47;38.90;;;5.20;99.90;;;;;;5117469;27;20063;-48
2021/03/02 04:53:30;;;;;;;54.58;38.00;;;5.30;99.90;;;;;;5136287;27;20529;-48
2021/03/02 04:55:59;;;;;;;54.42;34.83;;;5.40;99.90;;;;;;5136175;27;20066;-48
2021/03/02 04:58:24;;;;;;;39.63;28.60;;;5.40;99.90;;;;;;5083401;27;20097;-48
2021/03/02 05:00:50;;;;;;;41.67;28.58;;;5.50;99.90;;;;;;5136410;27;20027;-48
2021/03/02 05:03:16;;;;;;;49.97;29.63;;;5.60;99.90;;;;;;5135824;27;20027;-49
2021/03/02 05:05:42;;;;;;;48.08;29.60;;;5.60;99.90;;;;;;5083388;27;20115;-48
2021/03/02 05:08:07;;;;;;;42.15;25.58;;;5.60;99.90;;;;;;5083058;27;20114;-48
2021/03/02 05:10:33;;;;;;;36.92;25.17;;;5.60;99.90;;;;;;5135719;27;20068;-48
2021/03/02 05:12:59;;;;;;;35.92;23.15;;;5.60;99.90;;;;;;5136229;27;20026;-48
2021/03/02 05:15:24;;;;;;;39.38;23.88;;;5.70;99.90;;;;;;5135796;27;20039;-49
2021/03/02 05:17:50;;;;;;;36.50;23.35;;;5.70;99.90;;;;;;5082242;27;20050;-48
2021/03/02 05:20:16;;;;;;;35.72;23.90;;;5.80;99.90;;;;;;5135823;27;20679;-49
2021/03/02 05:22:42;;;;;;;41.97;24.90;;;5.80;99.90;;;;;;5135814;27;20469;-48
2021/03/02 05:25:08;;;;;;;38.58;24.48;;;5.80;99.90;;;;;;5082461;27;20031;-48
2021/03/02 05:27:33;;;;;;;41.47;23.45;;;5.80;99.90;;;;;;5082606;27;20031;-49
2021/03/02 05:29:59;;;;;;;43.72;24.05;;;5.80;99.90;;;;;;5135809;27;20027;-49
2021/03/02 05:32:25;;;;;;;49.03;24.60;;;5.90;99.90;;;;;;5135466;27;20023;-48
2021/03/02 05:34:51;;;;;;;48.20;24.98;;;5.90;99.90;;;;;;5135644;27;20052;-48
2021/03/02 05:37:16;;;;;;;37.20;24.05;;;5.90;99.90;;;;;;5135360;27;20462;-48
2021/03/02 05:39:42;;;;;;;33.55;23.40;;;5.90;99.90;;;;;;5082117;27;20487;-49
2021/03/02 05:42:08;;;;;;;34.50;23.70;;;5.90;99.90;;;;;;5134151;27;20109;-49
2021/03/02 05:44:34;;;;;;;36.30;25.02;;;5.90;99.90;;;;;;5135274;27;20110;-49
2021/03/02 05:47:01;;;;;;;33.25;23.83;;;5.80;99.90;;;;;;5135053;27;20047;-48
2021/03/02 05:49:28;;;;;;;34.45;23.25;;;5.80;99.90;;;;;;5135154;27;20023;-49
2021/03/02 05:51:53;;;;;;;34.13;22.83;;;5.80;99.90;;;;;;5065488;27;20450;-48
2021/03/02 05:54:20;;;;;;;38.63;24.83;;;5.70;99.90;;;;;;5134913;27;20027;-50
2021/03/02 05:56:45;;;;;;;39.65;25.88;;;5.80;99.90;;;;;;5134836;27;20087;-49
2021/03/02 05:59:11;;;;;;;44.55;30.15;;;6.00;99.90;;;;;;5135166;27;20031;-49
2021/03/02 06:01:37;;;;;;;49.78;32.80;;;6.00;99.90;;;;;;5134847;27;20035;-49
2021/03/02 06:04:04;;;;;;;93.63;51.20;;;6.10;99.90;;;;;;5134953;27;20465;-48
2021/03/02 06:06:30;;;;;;;76.60;41.97;;;6.00;99.90;;;;;;5065219;27;20031;-49
2021/03/02 06:08:56;;;;;;;34.17;24.23;;;6.60;99.90;;;;;;5098939;27;20122;-49
2021/03/02 06:11:29;;;;;;;31.23;22.25;;;7.40;99.90;;;;;;5134589;27;20476;-48
2021/03/02 06:13:56;;;;;;;31.02;22.00;;;8.20;99.90;;;;;;5134852;27;20058;-48
2021/03/02 06:16:23;;;;;;;26.27;20.27;;;;;;;;;;5134640;27;20147;-49
2021/03/02 06:18:50;;;;;;;26.25;20.27;;;;;;;;;;5134501;27;20064;-48
2021/03/02 06:21:16;;;;;;;36.22;20.58;;;;;;;;;;5134441;27;20029;-49
2021/03/02 06:23:53;;;;;;;28.30;22.60;;;11.10;99.90;;;;;;5134884;27;20026;-50
2021/03/02 06:26:27;;;;;;;27.08;20.42;;;;;;;;;;5134789;27;20030;-49
2021/03/02 06:28:57;;;;;;;27.48;19.90;;;12.60;93.80;;;;;;5134688;27;20519;-49
2021/03/02 06:31:37;;;;;;;26.40;19.95;;;;;;;;;;5134560;27;20045;-49
2021/03/02 06:34:14;;;;;;;25.33;20.55;;;14.60;86.00;;;;;;5134689;27;20025;-49
2021/03/02 06:36:41;;;;;;;30.48;22.52;;;;;;;;;;5134925;27;20393;-49
2021/03/02 06:39:28;;;;;;;33.92;24.95;;;15.90;99.90;;;;;;5134336;27;20027;-49
2021/03/02 06:42:11;;;;;;;34.50;24.73;;;;;;;;;;5134486;28;20382;-49
2021/03/02 06:44:37;;;;;;;43.45;27.80;;;16.30;95.90;;;;;;5134055;28;20020;-50
2021/03/02 06:47:03;;;;;;;34.97;23.45;;;;;;;;;;5133925;27;20035;-50
2021/03/02 06:49:45;;;;;;;30.65;22.10;;;;;;;;;;5133548;27;20025;-50
2021/03/02 06:52:12;;;;;;;31.75;22.60;;;;;;;;;;5097878;28;20045;-50
2021/03/02 06:54:39;;;;;;;29.45;21.58;;;;;;;;;;5138302;27;20493;-50
2021/03/02 06:57:05;;;;;;;31.42;22.35;;;;;;;;;;5138861;27;20046;-49
2021/03/02 06:59:31;;;;;;;29.52;22.05;;;17.90;62.90;;;;;;5138607;27;20031;-50
2021/03/02 07:01:57;;;;;;;27.52;21.63;;;;;;;;;;5102330;27;20111;-49
2021/03/02 07:04:26;;;;;;;29.00;21.30;;;19.10;60.90;;;;;;5138725;27;20030;-49
2021/03/02 07:06:57;;;;;;;24.70;20.52;;;;;;;;;;5138487;27;20023;-49
2021/03/02 07:09:33;;;;;;;26.55;21.77;;;20.00;56.90;;;;;;5137749;27;20050;-46
2021/03/02 07:14:48;;;;;;;30.50;21.95;;;20.60;58.80;;;;;;5138385;27;20130;-47
2021/03/02 07:17:14;;;;;;;28.88;23.05;;;18.30;55.20;;;;;;5085076;27;20043;-47
2021/03/02 07:19:41;;;;;;;27.83;22.63;;;17.90;67.50;;;;;;5138198;27;20027;-50
2021/03/02 07:22:10;;;;;;;29.88;23.08;;;17.90;75.10;;;;;;5138189;27;20031;-50
2021/03/02 07:24:39;;;;;;;27.98;22.60;;;;;;;;;;5137991;27;20031;-50
2021/03/02 07:27:08;;;;;;;29.83;23.52;;;19.70;55.90;;;;;;5138208;27;20147;-49
2021/03/02 07:29:34;;;;;;;31.33;25.77;;;;;;;;;;5138504;27;20072;-47
2021/03/02 07:32:02;;;;;;;33.75;26.90;;;20.90;53.30;;;;;;5137932;27;20407;-47
2021/03/02 07:34:28;;;;;;;32.17;24.80;;;19.40;54.30;;;;;;5138057;27;20027;-48
2021/03/02 07:36:54;;;;;;;33.65;26.67;;;20.60;53.50;;;;;;5137843;27;20027;-47
2021/03/02 07:39:25;;;;;;;31.83;26.02;;;;;;;;;;5137859;27;20026;-48
2021/03/02 07:41:52;;;;;;;38.08;27.52;;;;;;;;;;5119259;27;20102;-47
2021/03/02 07:44:18;;;;;;;32.92;27.02;;;22.20;51.70;;;;;;5137815;27;20030;-48
2021/03/02 07:46:49;;;;;;;33.50;28.38;;;;;;;;;;5137445;27;20126;-47
2021/03/02 07:49:32;;;;;;;33.60;27.57;;;;;;;;;;5137841;27;20027;-48
2021/03/02 07:52:01;;;;;;;31.00;26.13;;;;;;;;;;5137564;27;20084;-48
2021/03/02 07:54:28;;;;;;;35.88;25.90;;;;;;;;;;5137606;27;20038;-48
2021/03/02 07:57:19;;;;;;;31.65;25.15;;;;;;;;;;5137553;27;20114;-49
2021/03/02 07:59:46;;;;;;;32.55;25.30;;;23.70;60.70;;;;;;5033984;28;20044;-47
2021/03/02 08:02:13;;;;;;;29.92;24.20;;;;;;;;;;5034112;28;20439;-48
2021/03/02 08:04:39;;;;;;;31.88;24.52;;;;;;;;;;5033413;28;20041;-48
2021/03/02 08:07:29;;;;;;;30.70;24.58;;;;;;;;;;5001207;28;20041;-48
2021/03/02 08:09:56;;;;;;;31.85;26.98;;;22.10;88.10;;;;;;4975076;28;20073;-47
2021/03/02 08:12:40;;;;;;;29.33;24.40;;;;;;;;;;4975052;28;20447;-48
2021/03/02 08:15:12;;;;;;;31.05;23.92;;;;;;;;;;4974865;28;20039;-48
2021/03/02 08:17:38;;;;;;;;;;;24.00;47.50;;;;;;4975752;28;20054;-48
2021/03/02 08:20:08;;;;;;;39.97;24.65;;;;;;;;;;4976047;28;19915;-48
2021/03/02 08:22:34;;;;;;;29.00;23.55;;;24.30;46.90;;;;;;4974803;28;20057;-49
2021/03/02 08:25:29;;;;;;;31.55;23.83;;;24.60;47.00;;;;;;4974793;28;20494;-48
2021/03/02 08:27:57;;;;;;;30.08;22.88;;;23.60;47.70;;;;;;4936372;29;20431;-48
2021/03/02 08:30:38;;;;;;;28.08;24.30;;;21.70;49.40;;;;;;4936337;29;20071;-48
2021/03/02 08:33:06;;;;;;;28.67;23.70;;;23.30;49.20;;;;;;4936289;29;20538;-48
2021/03/02 08:35:35;;;;;;;30.23;23.38;;;;;;;;;;4937812;28;20031;-47
2021/03/02 08:38:05;;;;;;;30.45;23.52;;;23.70;47.20;;;;;;5013422;28;20073;-48
2021/03/02 08:40:31;;;;;;;30.95;24.98;;;23.10;49.00;;;;;;5013609;28;20376;-47
2021/03/02 08:43:11;;;;;;;50.53;25.20;;;23.90;48.60;;;;;;5013720;28;20034;-48
2021/03/02 08:45:42;;;;;;;29.58;23.40;;;;;;;;;;5013411;28;20382;-49
2021/03/02 08:48:30;;;;;;;22.45;19.58;;;23.10;47.60;;;;;;5073233;28;20040;-47
2021/03/02 08:51:01;;;;;;;23.45;20.80;;;22.80;48.70;;;;;;5073110;28;20360;-47
2021/03/02 08:53:28;;;;;;;27.90;21.23;;;23.40;47.80;;;;;;5073113;28;20050;-48
2021/03/02 08:55:54;;;;;;;34.97;26.83;;;23.00;48.80;;;;;;5073006;28;20039;-48
2021/03/02 08:58:36;;;;;;;27.27;21.88;;;21.20;48.80;;;;;;5073081;28;20441;-48
2021/03/02 09:01:09;;;;;;;27.52;22.58;;;22.40;50.70;;;;;;5072861;28;20031;-48
2021/03/02 09:03:36;;;;;;;24.45;19.80;;;22.90;49.90;;;;;;5051534;27;20481;-47
2021/03/02 09:06:06;;;;;;;25.17;21.98;;;;;;;;;;5083504;27;20039;-48
2021/03/02 09:08:31;;;;;;;34.85;28.88;;;21.50;59.40;;;;;;5136196;27;20098;-48
2021/03/02 09:11:03;;;;;;;39.42;28.25;;;21.70;48.90;;;;;;5136194;27;20406;-47
2021/03/02 09:13:40;;;;;;;26.65;20.15;;;22.30;50.30;;;;;;5136277;27;20027;-47
2021/03/02 09:16:32;;;;;;;30.75;23.50;;;22.70;48.80;;;;;;5081916;28;20050;-48
2021/03/02 09:19:31;;;;;;;27.15;19.95;;;23.00;69.00;;;;;;5136048;27;20448;-48
2021/03/02 09:21:56;;;;;;;23.95;17.50;;;22.70;49.00;;;;;;5032251;28;20075;-48
2021/03/02 09:24:24;;;;;;;21.50;18.80;;;21.70;49.20;;;;;;5032270;28;20029;-47
2021/03/02 09:26:55;;;;;;;23.38;18.63;;;22.60;48.50;;;;;;5032115;28;20037;-48
2021/03/02 09:29:22;;;;;;;23.97;18.27;;;;;;;;;;5032019;28;20037;-48
2021/03/02 09:31:50;;;;;;;20.13;17.42;;;21.30;56.50;;;;;;4999123;28;20038;-49
2021/03/02 09:34:16;;;;;;;19.50;16.67;;;;;;;;;;5032805;28;20393;-48
2021/03/02 09:36:42;;;;;;;18.05;14.55;;;20.10;73.20;;;;;;5031940;28;20033;-48
2021/03/02 09:39:19;;;;;;;25.00;18.73;;;;;;;;;;5031906;28;20463;-48
2021/03/02 09:41:45;;;;;;;21.27;18.23;;;21.40;90.20;;;;;;5032234;28;20025;-47
2021/03/02 09:44:17;;;;;;;20.20;17.83;;;;;;;;;;5015356;28;20042;-48
2021/03/02 09:46:43;;;;;;;20.63;16.20;;;22.20;63.90;;;;;;5032124;28;20448;-47
2021/03/02 09:49:09;;;;;;;21.35;15.45;;;22.50;49.10;;;;;;5015402;28;20044;-48
2021/03/02 09:51:35;;;;;;;16.98;14.65;;;;;;;;;;5015220;28;20029;-48
2021/03/02 09:54:17;;;;;;;21.27;14.68;;;20.80;48.80;;;;;;5032108;28;20518;-48
2021/03/02 09:56:44;;;;;;;19.73;14.35;;;21.80;48.80;;;;;;5031976;28;20029;-48
2021/03/02 09:59:18;;;;;;;21.90;14.38;;;22.50;48.80;;;;;;5102603;27;20047;-48
2021/03/02 10:01:44;;;;;;;17.30;13.75;;;22.90;48.20;;;;;;5135098;27;20028;-49
2021/03/02 10:04:10;;;;;;;30.30;19.40;;;22.50;47.70;;;;;;5135044;27;20034;-47
2021/03/02 10:06:36;;;;;;;16.27;12.48;;;23.20;49.00;;;;;;5134163;27;20106;-48
2021/03/02 10:09:02;;;;;;;15.85;13.88;;;23.00;46.50;;;;;;5135093;27;20427;-49
2021/03/02 10:11:30;;;;;;;16.20;13.38;;;;;;;;;;5134833;27;20481;-49
2021/03/02 10:13:58;;;;;;;18.70;14.45;;;23.70;66.00;;;;;;5134348;27;20061;-48
2021/03/02 10:16:38;;;;;;;19.23;14.73;;;23.20;46.90;;;;;;5134987;27;20100;-49
2021/03/02 10:19:27;;;;;;;40.58;27.40;;;;;;;;;;5134526;27;20031;-50
2021/03/02 10:21:58;;;;;;;18.40;15.15;;;20.70;48.10;;;;;;5134531;27;20015;-49
2021/03/02 10:24:26;;;;;;;16.38;13.05;;;20.60;51.10;;;;;;5134859;27;20406;-49
2021/03/02 10:26:54;;;;;;;12.93;11.15;;;21.70;48.90;;;;;;5134459;27;20023;-48
2021/03/02 10:29:20;;;;;;;47.58;34.55;;;21.90;47.90;;;;;;5097811;27;20060;-49
2021/03/02 10:31:46;;;;;;;10.88;9.43;;;22.30;46.60;;;;;;5134600;27;20106;-49
2021/03/02 10:34:13;;;;;;;13.30;11.68;;;22.50;46.40;;;;;;5098377;27;20428;-49
2021/03/02 10:36:41;;;;;;;11.63;9.82;;;23.20;46.00;;;;;;5133965;27;20114;-49
2021/03/02 10:39:12;;;;;;;21.45;15.75;;;23.90;44.70;;;;;;5134144;27;20027;-49
2021/03/02 10:41:38;;;;;;;41.05;24.10;;;23.80;44.90;;;;;;5134397;27;20470;-49
2021/03/02 10:44:05;;;;;;;12.95;11.52;;;24.20;45.20;;;;;;5134179;28;20444;-48
2021/03/02 10:46:32;;;;;;;108.15;48.10;;;23.80;44.20;;;;;;5134105;28;20092;-49
2021/03/02 10:48:59;;;;;;;55.30;27.55;;;23.70;44.00;;;;;;5081618;28;20085;-49
2021/03/02 10:51:26;;;;;;;94.00;39.60;;;23.70;44.60;;;;;;5133918;27;20035;-48
2021/03/02 10:53:53;;;;;;;39.08;22.48;;;22.90;44.10;;;;;;5134471;27;20039;-48
2021/03/02 10:56:19;;;;;;;17.00;13.80;;;22.80;44.50;;;;;;5134344;27;20035;-49
2021/03/02 10:58:46;;;;;;;125.28;59.85;;;23.30;45.50;;;;;;5097791;28;20042;-48
2021/03/02 11:01:12;;;;;;;86.10;43.45;;;23.90;45.80;;;;;;5134230;27;20027;-49
2021/03/02 11:03:44;;;;;;;21.23;15.93;;;24.10;44.60;;;;;;5134201;27;20110;-47
2021/03/02 11:06:15;;;;;;;15.02;11.70;;;23.30;43.90;;;;;;5133597;28;20027;-47
2021/03/02 11:08:43;;;;;;;35.65;24.10;;;23.80;43.70;;;;;;5134257;27;20030;-48
2021/03/02 11:11:10;;;;;;;111.70;57.38;;;22.30;44.50;;;;;;5133960;27;20039;-47
2021/03/02 11:13:35;;;;;;;13.73;10.20;;;20.80;46.10;;;;;;5133880;27;20069;-47
2021/03/02 11:16:01;;;;;;;14.77;10.93;;;21.70;45.90;;;;;;5133923;28;20077;-47
2021/03/02 11:18:27;;;;;;;13.30;10.65;;;;;;;;;;5134148;27;20035;-47
2021/03/02 11:20:53;;;;;;;14.32;10.13;;;23.30;78.10;;;;;;5133680;28;20026;-46
2021/03/02 11:23:19;;;;;;;16.45;11.82;;;22.40;45.40;;;;;;5134028;27;20031;-46
2021/03/02 11:25:45;;;;;;;17.38;11.70;;;22.00;45.70;;;;;;5114882;28;20046;-47
2021/03/02 11:28:12;;;;;;;15.77;12.70;;;21.40;46.70;;;;;;5133599;28;20481;-47
2021/03/02 11:30:39;;;;;;;11.68;10.35;;;21.70;46.10;;;;;;5133813;27;20515;-47
2021/03/02 11:33:05;;;;;;;14.60;11.68;;;22.80;44.80;;;;;;5133864;27;20110;-47
2021/03/02 11:35:31;;;;;;;17.95;13.32;;;23.30;44.80;;;;;;5114606;28;20118;-47
2021/03/02 11:37:56;;;;;;;17.35;12.48;;;22.10;45.60;;;;;;5133308;28;20439;-47
2021/03/02 11:40:24;;;;;;;22.17;15.13;;;21.80;47.10;;;;;;5135389;27;20019;-47
2021/03/02 11:42:52;;;;;;;17.23;12.45;;;21.30;47.10;;;;;;5137428;27;20034;-47
2021/03/02 11:45:22;;;;;;;14.68;12.07;;;21.90;51.90;;;;;;5137381;27;20027;-47
2021/03/02 11:47:48;;;;;;;16.90;12.27;;;22.20;52.00;;;;;;5134647;27;20047;-48
2021/03/02 11:50:15;;;;;;;15.02;12.50;;;22.80;45.50;;;;;;5137215;27;20031;-47
2021/03/02 11:52:41;;;;;;;13.52;11.90;;;22.00;45.50;;;;;;5137450;27;20054;-47
2021/03/02 11:55:08;;;;;;;13.82;11.75;;;22.10;46.10;;;;;;5137534;27;20454;-48
2021/03/02 11:57:35;;;;;;;16.02;12.57;;;22.20;45.90;;;;;;5067262;27;20132;-47
2021/03/02 12:00:01;;;;;;;20.48;14.10;;;;;;;;;;5137363;27;20030;-47
2021/03/02 12:02:27;;;;;;;13.57;11.95;;;21.20;46.60;;;;;;5137281;27;20420;-47
2021/03/02 12:04:53;;;;;;;19.58;12.68;;;22.10;47.30;;;;;;5137053;27;20113;-47
2021/03/02 12:07:19;;;;;;;13.23;11.77;;;22.40;53.90;;;;;;5117951;27;20060;-47
2021/03/02 12:09:45;;;;;;;14.93;12.32;;;22.90;45.40;;;;;;5137397;27;20031;-46
2021/03/02 12:12:11;;;;;;;13.65;11.85;;;22.70;45.90;;;;;;5083526;27;20401;-47
2021/03/02 12:14:37;;;;;;;13.57;10.90;;;22.90;46.30;;;;;;5118025;27;20035;-49
2021/03/02 12:17:03;;;;;;;15.85;10.30;;;;;;;;;;5135330;27;20035;-48
2021/03/02 12:19:30;;;;;;;13.27;10.85;;;;;;;;;;5137350;27;20031;-48
2021/03/02 12:21:56;;;;;;;14.00;10.43;;;20.80;59.50;;;;;;5136940;27;20031;-48
2021/03/02 12:24:22;;;;;;;14.90;11.25;;;21.60;46.00;;;;;;5134918;27;20038;-49
2021/03/02 12:26:49;;;;;;;15.73;10.95;;;21.10;47.00;;;;;;5136827;27;20044;-48
2021/03/02 12:29:15;;;;;;;28.88;12.23;;;21.10;47.60;;;;;;5136473;27;20038;-48
2021/03/02 12:31:42;;;;;;;13.30;11.10;;;21.60;46.80;;;;;;5136876;27;20031;-48
2021/03/02 12:34:08;;;;;;;14.57;11.25;;;21.90;46.30;;;;;;5136601;27;20038;-49
2021/03/02 12:36:35;;;;;;;15.27;11.57;;;22.20;60.20;;;;;;5129524;27;20058;-48
2021/03/02 12:39:00;;;;;;;14.82;10.85;;;21.80;56.30;;;;;;5118152;27;20476;-49
2021/03/02 12:41:26;;;;;;;13.75;9.70;;;21.90;56.80;;;;;;5115800;28;20055;-49
2021/03/02 12:43:52;;;;;;;12.45;10.88;;;21.20;53.70;;;;;;5116216;28;20069;-48
2021/03/02 12:46:18;;;;;;;17.73;9.65;;;;;;;;;;5115909;28;20032;-49
2021/03/02 12:48:44;;;;;;;12.50;9.23;;;20.20;64.80;;;;;;5116165;28;20067;-49
2021/03/02 12:51:09;;;;;;;11.88;8.85;;;20.30;61.10;;;;;;5115733;28;20485;-48
2021/03/02 12:53:35;;;;;;;12.13;8.75;;;20.80;58.30;;;;;;5116006;28;20059;-49
2021/03/02 12:56:02;;;;;;;11.95;8.20;;;20.60;57.50;;;;;;5096961;28;20527;-48